Time;durP1;ratioP1;P1;durP2;ratioP2;P2;SDS_P1;SDS_P2;PMS_P1;PMS_P2;Temp;Humidity;BMP_temperature;BMP_pressure;BME280_temperature;BME280_humidity;BME280_pressure;Samples;Min_cycle;Max_cycle;Signal;HPM_P1;HPM_P2
2021/11/23 00:01:16;;;;;;;6.28;3.65;;;0.40;99.90;;;-0.73;100.00;98642.38;5047481;28;21043;-70
2021/11/23 00:03:44;;;;;;;6.40;3.25;;;0.40;99.90;;;-0.78;100.00;98643.09;5048040;28;20046;-69
2021/11/23 00:06:12;;;;;;;6.68;3.90;;;0.40;99.90;;;-0.80;100.00;98635.41;5048176;28;20048;-70
2021/11/23 00:08:40;;;;;;;7.32;3.53;;;0.40;99.90;;;-0.82;100.00;98637.09;5048691;28;20045;-68
2021/11/23 00:11:07;;;;;;;6.75;3.42;;;0.30;99.90;;;-0.81;100.00;98635.41;5043258;28;20045;-70
2021/11/23 00:13:34;;;;;;;6.93;3.00;;;0.40;99.90;;;-0.85;100.00;98637.03;5044533;28;20121;-68
2021/11/23 00:16:01;;;;;;;6.28;3.20;;;0.30;99.90;;;-0.85;100.00;98640.44;5048711;28;20083;-69
2021/11/23 00:18:29;;;;;;;6.25;3.45;;;0.30;99.90;;;-0.83;100.00;98642.16;5051454;28;20045;-69
2021/11/23 00:20:56;;;;;;;5.88;2.90;;;0.30;99.90;;;-0.89;100.00;98648.88;5046583;28;20085;-69
2021/11/23 00:23:23;;;;;;;6.63;2.72;;;0.30;99.90;;;-0.90;100.00;98646.28;5043107;28;20061;-69
2021/11/23 00:25:50;;;;;;;6.07;3.63;;;0.30;99.90;;;-0.79;100.00;98651.59;5045735;28;20135;-69
2021/11/23 00:28:18;;;;;;;7.63;3.13;;;0.30;99.90;;;-0.83;100.00;98649.81;5048338;28;20457;-69
2021/11/23 00:30:46;;;;;;;7.00;3.17;;;0.30;99.90;;;-0.86;100.00;98648.91;5042904;28;20483;-68
2021/11/23 00:33:14;;;;;;;5.70;3.38;;;0.30;99.90;;;-0.83;100.00;98648.13;5046767;28;20470;-69
2021/11/23 00:35:42;;;;;;;7.05;3.67;;;0.30;99.90;;;-0.82;100.00;98643.88;5046775;28;20120;-70
2021/11/23 00:38:14;;;;;;;7.65;4.20;;;0.30;99.90;;;-0.83;100.00;98643.00;5048524;28;20459;-70
2021/11/23 00:40:42;;;;;;;9.20;4.53;;;0.30;99.90;;;-0.85;100.00;98642.13;5040837;28;20438;-70
2021/11/23 00:43:09;;;;;;;8.77;4.75;;;0.30;99.90;;;-0.83;100.00;98642.16;5049210;28;20123;-69
2021/11/23 00:45:39;;;;;;;12.93;4.95;;;0.30;99.90;;;-0.86;100.00;98643.81;5046331;28;20406;-68
2021/11/23 00:48:06;;;;;;;9.05;3.92;;;0.30;99.90;;;-0.88;100.00;98650.56;5046621;28;20652;-70
2021/11/23 00:50:35;;;;;;;8.80;4.68;;;0.30;99.90;;;-0.81;100.00;98643.91;5046937;28;20068;-69
2021/11/23 00:53:04;;;;;;;7.25;3.88;;;0.30;99.90;;;-0.82;100.00;98644.75;5045745;28;20076;-70
2021/11/23 00:55:32;;;;;;;13.85;5.05;;;0.30;99.90;;;-0.80;100.00;98640.50;5043703;28;20508;-69
2021/11/23 00:58:00;;;;;;;13.63;4.85;;;0.30;99.90;;;-0.77;100.00;98642.28;5045482;28;20101;-69
2021/11/23 01:00:27;;;;;;;8.68;4.38;;;0.30;99.90;;;-0.81;100.00;98651.56;5050069;28;20562;-68
2021/11/23 01:02:54;;;;;;;9.73;4.95;;;0.30;99.90;;;-0.83;100.00;98644.72;5050767;28;20370;-70
2021/11/23 01:05:22;;;;;;;11.38;5.32;;;0.30;99.90;;;-0.83;100.00;98655.75;5047001;28;20069;-70
2021/11/23 01:07:49;;;;;;;10.30;4.57;;;0.30;99.90;;;-0.86;100.00;98659.13;5046083;28;20136;-69
2021/11/23 01:10:16;;;;;;;10.48;5.10;;;0.30;99.90;;;-0.83;100.00;98663.41;5045272;28;20136;-69
2021/11/23 01:12:43;;;;;;;9.75;4.65;;;0.30;99.90;;;-0.88;100.00;98658.22;5029324;28;20041;-69
2021/11/23 01:15:11;;;;;;;8.88;4.43;;;0.30;99.90;;;-0.88;100.00;98652.28;5046513;28;20099;-69
2021/11/23 01:17:38;;;;;;;10.30;4.43;;;0.30;99.90;;;-0.84;100.00;98656.59;5053154;28;20468;-69
2021/11/23 01:20:08;;;;;;;7.15;4.50;;;0.30;99.90;;;-0.90;100.00;98651.38;5066041;28;20049;-70
2021/11/23 01:22:37;;;;;;;9.00;5.30;;;0.20;99.90;;;-0.88;100.00;98658.22;5046849;28;20050;-68
2021/11/23 01:25:06;;;;;;;8.73;4.20;;;0.30;99.90;;;-0.92;100.00;98656.44;5044105;28;20114;-69
2021/11/23 01:27:34;;;;;;;10.60;4.65;;;0.30;99.90;;;-0.88;100.00;98662.47;5045392;28;20109;-69
2021/11/23 01:30:02;;;;;;;11.23;4.82;;;0.30;99.90;;;-0.92;100.00;98664.06;5041620;28;20109;-69
2021/11/23 01:32:29;;;;;;;10.40;5.78;;;0.30;99.90;;;-0.89;100.00;98663.28;5037299;28;20080;-69
2021/11/23 01:34:56;;;;;;;11.85;4.60;;;0.30;99.90;;;-0.97;100.00;98663.13;5051550;28;20091;-69
2021/11/23 01:37:23;;;;;;;7.35;4.80;;;0.30;99.90;;;-1.00;100.00;98665.63;5064539;28;20347;-69
2021/11/23 01:39:50;;;;;;;12.02;5.22;;;0.20;99.90;;;-0.99;100.00;98662.22;5053107;28;20060;-69
2021/11/23 01:42:17;;;;;;;9.07;5.03;;;0.20;99.90;;;-1.01;100.00;98668.13;5054890;28;20045;-69
2021/11/23 01:44:44;;;;;;;9.75;4.25;;;0.20;99.90;;;-1.05;100.00;98669.75;5051987;28;20072;-70
2021/11/23 01:47:11;;;;;;;9.20;4.85;;;0.20;99.90;;;-1.12;100.00;98666.22;5051032;28;20124;-70
2021/11/23 01:49:38;;;;;;;10.52;5.32;;;0.10;99.90;;;-1.08;100.00;98672.25;5056922;28;20132;-69
2021/11/23 01:52:05;;;;;;;10.85;6.07;;;0.10;99.90;;;-1.12;100.00;98667.91;5050079;28;20041;-69
2021/11/23 01:54:34;;;;;;;7.05;4.60;;;0.10;99.90;;;-1.13;100.00;98673.84;5056444;28;20412;-69
2021/11/23 01:57:02;;;;;;;9.90;5.38;;;0.10;99.90;;;-1.10;100.00;98678.97;5044497;28;20073;-69
2021/11/23 01:59:29;;;;;;;9.75;5.97;;;0.10;99.90;;;-1.13;100.00;98668.75;5035432;28;20136;-68
2021/11/23 02:01:56;;;;;;;11.07;5.60;;;0.10;99.90;;;-1.23;100.00;98675.31;5057428;28;21595;-68
2021/11/23 02:04:23;;;;;;;9.18;5.13;;;0.00;99.90;;;-1.22;100.00;98676.19;5061532;28;20534;-69
2021/11/23 02:06:50;;;;;;;9.48;5.72;;;0.00;99.90;;;-1.22;100.00;98668.53;5053744;28;20079;-69
2021/11/23 02:09:17;;;;;;;9.50;5.38;;;0.00;99.90;;;-1.17;100.00;98674.59;5056506;28;20080;-69
2021/11/23 02:11:45;;;;;;;10.48;6.53;;;0.00;99.90;;;-1.27;100.00;98676.09;5058530;28;20127;-69
2021/11/23 02:14:13;;;;;;;13.10;6.57;;;-0.10;99.90;;;-1.31;100.00;98680.22;5054128;28;20536;-69
2021/11/23 02:16:40;;;;;;;11.82;6.05;;;-0.10;99.90;;;-1.32;100.00;98672.59;5055004;28;20483;-69
2021/11/23 02:19:07;;;;;;;10.48;6.32;;;-0.10;99.90;;;-1.30;100.00;98668.34;5046562;28;20081;-70
2021/11/23 02:21:34;;;;;;;11.60;5.75;;;-0.10;99.90;;;-1.25;100.00;98669.34;5060428;28;20076;-70
2021/11/23 02:24:02;;;;;;;10.60;4.82;;;-0.10;99.90;;;-1.18;100.00;98663.53;5050673;28;20147;-70
2021/11/23 02:26:30;;;;;;;8.05;4.20;;;-0.10;99.90;;;-1.16;100.00;98666.13;5044830;28;20041;-69
2021/11/23 02:28:57;;;;;;;15.25;5.28;;;;;;;-1.31;100.00;98661.56;5046519;28;20247;-70
2021/11/23 02:31:29;;;;;;;10.35;5.07;;;;;;;-1.43;100.00;98668.94;5051639;28;20040;-70
2021/11/23 02:33:57;;;;;;;9.70;4.95;;;;;;;-1.41;100.00;98670.69;5052558;28;20051;-69
2021/11/23 02:36:24;;;;;;;10.48;5.72;;;-0.20;99.90;;;-1.39;100.00;98663.06;5047898;28;20120;-70
2021/11/23 02:38:52;;;;;;;9.80;4.68;;;-0.20;99.90;;;-1.54;100.00;98679.72;5059369;28;20123;-70
2021/11/23 02:41:19;;;;;;;8.88;5.05;;;-0.30;99.90;;;-1.55;100.00;98670.38;5052073;28;20055;-70
2021/11/23 02:43:47;;;;;;;16.40;6.93;;;-0.40;99.90;;;-1.64;100.00;98667.63;5050652;28;20113;-70
2021/11/23 02:46:15;;;;;;;14.02;6.78;;;-0.40;99.90;;;-1.69;100.00;98670.06;5050126;28;20132;-69
2021/11/23 02:48:42;;;;;;;10.65;6.60;;;-0.50;99.90;;;-1.67;100.00;98674.31;5053142;28;20053;-70
2021/11/23 02:51:16;;;;;;;9.40;6.30;;;-0.50;99.90;;;-1.85;100.00;98669.63;5049969;28;20385;-69
2021/11/23 02:53:46;;;;;;;11.35;5.72;;;;;;;-1.90;100.00;98667.84;5046849;28;20159;-70
2021/11/23 02:56:15;;;;;;;11.35;6.43;;;;;;;-1.98;100.00;98671.88;5056896;28;20124;-69
2021/11/23 02:58:46;;;;;;;8.65;5.45;;;-0.70;99.90;;;-1.99;100.00;98677.78;5057079;28;20076;-70
2021/11/23 03:01:18;;;;;;;12.98;6.22;;;-0.70;99.90;;;-1.86;100.00;98678.09;5052886;28;20121;-69
2021/11/23 03:03:47;;;;;;;11.10;7.00;;;-0.70;99.90;;;-1.83;100.00;98680.72;5060629;28;20398;-69
2021/11/23 03:06:17;;;;;;;10.68;6.45;;;-0.70;99.90;;;-1.71;100.00;98678.44;5054400;28;20098;-69
2021/11/23 03:08:45;;;;;;;13.27;6.05;;;-0.60;99.90;;;-1.74;100.00;98681.78;5061279;28;20099;-69
2021/11/23 03:11:15;;;;;;;10.45;6.47;;;-0.60;99.90;;;-1.66;100.00;98674.34;5054646;28;20120;-69
2021/11/23 03:13:42;;;;;;;11.40;6.35;;;-0.50;99.90;;;-1.62;100.00;98672.72;5062274;28;20127;-69
2021/11/23 03:16:09;;;;;;;9.73;5.72;;;-0.50;99.90;;;-1.62;100.00;98672.72;5045684;28;20084;-69
2021/11/23 03:18:36;;;;;;;8.68;5.35;;;-0.40;99.90;;;-1.69;100.00;98671.72;5055450;28;20124;-69
2021/11/23 03:21:04;;;;;;;13.98;5.90;;;-0.50;99.90;;;-1.69;100.00;98661.53;5043433;28;20091;-69
2021/11/23 03:23:32;;;;;;;13.85;6.22;;;-0.50;99.90;;;-1.74;100.00;98669.06;5040788;28;20144;-69
2021/11/23 03:25:59;;;;;;;11.23;5.05;;;-0.50;99.90;;;-1.74;100.00;98668.22;5045322;28;20128;-68
2021/11/23 03:28:27;;;;;;;9.65;5.32;;;-0.60;99.90;;;-1.77;100.00;98666.47;5052725;28;20443;-69
2021/11/23 03:30:54;;;;;;;13.32;6.50;;;-0.60;99.90;;;-1.79;100.00;98672.34;5055866;28;20123;-70
2021/11/23 03:33:21;;;;;;;12.23;5.85;;;-0.60;99.90;;;-1.78;100.00;98663.88;5057224;28;20091;-69
2021/11/23 03:35:49;;;;;;;10.93;5.30;;;-0.60;99.90;;;-1.81;100.00;98664.66;5053362;28;20095;-70
2021/11/23 03:38:16;;;;;;;13.25;6.82;;;-0.60;99.90;;;-1.74;100.00;98666.50;5048341;28;20095;-70
2021/11/23 03:40:44;;;;;;;10.98;5.90;;;-0.60;99.90;;;-1.76;100.00;98660.53;5053400;28;20072;-69
2021/11/23 03:43:13;;;;;;;10.27;6.07;;;-0.60;99.90;;;-1.84;100.00;98664.59;5052596;28;20135;-70
2021/11/23 03:45:40;;;;;;;10.15;5.53;;;-0.60;99.90;;;-1.86;100.00;98661.16;5056812;28;20075;-68
2021/11/23 03:48:08;;;;;;;14.82;6.07;;;-0.60;99.90;;;-1.81;100.00;98662.09;5056133;28;20119;-70
2021/11/23 03:50:35;;;;;;;9.43;5.40;;;-0.60;99.90;;;-1.83;100.00;98655.25;5041594;28;20041;-69
2021/11/23 03:53:02;;;;;;;10.60;5.55;;;-0.40;99.90;;;-1.87;100.00;98661.09;5052679;28;20631;-70
2021/11/23 03:55:33;;;;;;;10.98;5.55;;;-0.40;99.90;;;-1.84;100.00;98656.97;5047320;28;20087;-70
2021/11/23 03:58:01;;;;;;;17.48;6.60;;;-0.50;99.90;;;-1.89;100.00;98656.00;5044202;28;20139;-68
2021/11/23 04:00:29;;;;;;;13.38;6.32;;;-0.40;99.90;;;-1.91;100.00;98653.41;5042963;28;20504;-68
2021/11/23 04:02:56;;;;;;;12.82;6.47;;;-0.40;99.90;;;-1.93;100.00;98644.00;5051377;28;20125;-70
2021/11/23 04:05:23;;;;;;;12.93;7.03;;;-0.40;99.90;;;-1.88;100.00;98652.59;5052917;28;20044;-69
2021/11/23 04:07:52;;;;;;;10.65;6.65;;;-0.40;99.90;;;-1.88;100.00;98651.75;5049040;28;20139;-69
2021/11/23 04:10:19;;;;;;;13.32;7.28;;;-0.40;99.90;;;-1.84;100.00;98640.84;5048704;28;20044;-69
2021/11/23 04:12:47;;;;;;;13.02;6.13;;;-0.40;99.90;;;-1.84;100.00;98645.91;5054283;28;20072;-68
2021/11/23 04:15:15;;;;;;;12.25;6.40;;;-0.40;99.90;;;-1.88;100.00;98644.13;5046194;28;20127;-70
2021/11/23 04:17:42;;;;;;;10.85;5.25;;;-0.40;99.90;;;-1.87;100.00;98645.81;5052543;28;20041;-70
2021/11/23 04:20:11;;;;;;;9.63;5.55;;;-0.40;99.90;;;-1.90;100.00;98639.84;5048519;28;20136;-70
2021/11/23 04:22:38;;;;;;;12.05;4.78;;;-0.40;99.90;;;-1.91;100.00;98648.31;5051695;28;20071;-69
2021/11/23 04:25:10;;;;;;;10.35;4.55;;;-0.40;99.90;;;-1.84;100.00;98645.91;5046222;28;20528;-69
2021/11/23 04:27:39;;;;;;;10.48;4.20;;;;;;;-1.82;100.00;98646.81;5051569;28;20128;-69
2021/11/23 04:30:09;;;;;;;9.95;4.47;;;;;;;-1.86;100.00;98645.03;5041386;28;20493;-69
2021/11/23 04:32:37;;;;;;;9.27;4.57;;;;;;;-1.90;100.00;98639.84;5044040;28;20073;-69
2021/11/23 04:35:06;;;;;;;12.13;5.32;;;;;;;-1.80;100.00;98650.25;5038212;28;20184;-70
2021/11/23 04:37:33;;;;;;;7.40;4.65;;;-0.50;99.90;;;-1.84;100.00;98644.22;5044266;28;20037;-69
2021/11/23 04:40:00;;;;;;;10.15;5.22;;;-0.40;99.90;;;-1.80;100.00;98643.50;5049283;28;20049;-70
2021/11/23 04:42:27;;;;;;;14.52;5.47;;;-0.30;99.90;;;-1.64;100.00;98644.69;5049656;28;20072;-68
2021/11/23 04:44:54;;;;;;;8.95;4.10;;;-0.30;99.90;;;-1.82;100.00;98650.22;5054932;28;20040;-69
2021/11/23 04:47:21;;;;;;;10.18;5.10;;;-0.20;99.90;;;-1.72;100.00;98654.69;5060741;28;20110;-68
2021/11/23 04:49:48;;;;;;;11.15;5.85;;;-0.30;99.90;;;-1.71;100.00;98650.44;5047457;28;20068;-69
2021/11/23 04:52:15;;;;;;;11.23;5.68;;;-0.20;99.90;;;-1.70;100.00;98652.19;5057526;28;20080;-69
2021/11/23 04:54:42;;;;;;;11.07;6.70;;;-0.30;99.90;;;-1.76;100.00;98662.22;5055691;28;20489;-70
2021/11/23 04:57:09;;;;;;;10.43;5.15;;;-0.30;99.90;;;-1.83;100.00;98663.75;5050358;28;20156;-69
2021/11/23 04:59:36;;;;;;;12.23;6.43;;;-0.30;99.90;;;-1.92;100.00;98661.00;5051565;28;20536;-70
2021/11/23 05:02:03;;;;;;;13.13;7.55;;;-0.40;99.90;;;-1.92;100.00;98666.94;5055074;28;20134;-70
2021/11/23 05:04:31;;;;;;;14.60;7.47;;;-0.40;99.90;;;-1.91;100.00;98671.22;5037428;28;20044;-70
2021/11/23 05:06:58;;;;;;;14.75;7.20;;;-0.40;99.90;;;-1.88;100.00;98672.13;5057956;28;20072;-69
2021/11/23 05:09:25;;;;;;;11.95;6.35;;;-0.50;99.90;;;-1.90;100.00;98670.38;5041616;28;20055;-70
2021/11/23 05:11:52;;;;;;;13.77;6.68;;;-0.50;99.90;;;-1.98;100.00;98669.34;5040577;28;20048;-69
2021/11/23 05:14:19;;;;;;;11.77;5.53;;;-0.50;99.90;;;-2.07;100.00;98666.56;5045306;28;20129;-70
2021/11/23 05:16:49;;;;;;;10.43;5.35;;;;;;;-2.07;100.00;98663.19;5058377;28;20045;-69
2021/11/23 05:19:17;;;;;;;10.25;5.07;;;;;;;-2.12;100.00;98669.00;5055539;28;20573;-69
2021/11/23 05:21:47;;;;;;;10.07;5.50;;;;;;;-2.00;100.00;98668.44;5049479;28;20127;-69
2021/11/23 05:24:14;;;;;;;9.75;5.43;;;;;;;-2.10;100.00;98674.09;5061838;28;20424;-70
2021/11/23 05:26:42;;;;;;;11.52;5.78;;;-0.90;99.90;;;-1.90;100.00;98672.91;5051917;28;20087;-70
2021/11/23 05:29:10;;;;;;;8.95;4.75;;;-0.70;99.90;;;-1.87;100.00;98673.81;5044781;28;20491;-69
2021/11/23 05:31:37;;;;;;;18.65;5.93;;;-0.70;99.90;;;-1.88;100.00;98677.19;5051215;28;20111;-69
2021/11/23 05:34:04;;;;;;;10.77;5.15;;;-0.70;99.90;;;-1.88;100.00;98679.75;5050897;28;20127;-69
2021/11/23 05:36:35;;;;;;;8.73;4.38;;;-0.70;99.90;;;-1.85;100.00;98682.34;5044364;28;20064;-70
2021/11/23 05:39:04;;;;;;;14.35;5.38;;;-0.70;99.90;;;-1.88;100.00;98680.59;5064892;28;20102;-69
2021/11/23 05:41:32;;;;;;;17.23;6.82;;;-0.70;99.90;;;-1.91;100.00;98683.94;5050582;28;20049;-69
2021/11/23 05:43:59;;;;;;;11.43;5.50;;;-0.70;99.90;;;-1.98;100.00;98682.06;5050163;28;20124;-70
2021/11/23 05:46:26;;;;;;;9.23;5.30;;;-0.70;99.90;;;-1.97;100.00;98690.56;5044703;28;20131;-69
2021/11/23 05:48:53;;;;;;;16.10;6.57;;;-0.80;99.90;;;-2.08;100.00;98692.81;5051181;28;20144;-69
2021/11/23 05:51:20;;;;;;;11.00;5.68;;;-0.80;99.90;;;-2.02;100.00;98698.06;5054032;28;20099;-70
2021/11/23 05:53:47;;;;;;;11.00;5.50;;;-0.80;99.90;;;-2.00;100.00;98701.53;5051870;28;20070;-70
2021/11/23 05:56:14;;;;;;;15.70;5.68;;;-0.80;99.90;;;-2.03;100.00;98704.00;5054633;28;20332;-70
2021/11/23 05:58:43;;;;;;;11.95;6.20;;;-0.80;99.90;;;-1.99;100.00;98703.22;5041433;28;20517;-69
2021/11/23 06:01:10;;;;;;;12.75;6.85;;;-0.80;99.90;;;-2.00;100.00;98701.53;5068443;28;20452;-69
2021/11/23 06:03:38;;;;;;;12.43;5.97;;;-0.80;99.90;;;-2.02;100.00;98702.31;5057655;28;20516;-69
2021/11/23 06:06:05;;;;;;;10.95;6.35;;;-0.80;99.90;;;-1.94;100.00;98704.22;5053506;28;20076;-68
2021/11/23 06:08:32;;;;;;;12.90;6.38;;;-0.70;99.90;;;-1.98;100.00;98722.78;5061616;28;20123;-70
2021/11/23 06:11:00;;;;;;;17.42;7.05;;;-0.70;99.90;;;-1.92;100.00;98722.06;5047867;28;20136;-69
2021/11/23 06:13:26;;;;;;;13.02;7.10;;;-0.70;99.90;;;-1.85;100.00;98725.63;5054573;28;20086;-69
2021/11/23 06:15:54;;;;;;;15.57;7.10;;;-0.70;99.90;;;-1.82;100.00;98720.63;5054066;28;20450;-68
2021/11/23 06:18:21;;;;;;;14.85;6.43;;;-0.70;99.90;;;-1.91;100.00;98723.78;5051632;28;20520;-70
2021/11/23 06:20:53;;;;;;;9.23;5.40;;;-0.70;99.90;;;-1.93;100.00;98726.28;5050034;28;20144;-69
2021/11/23 06:23:22;;;;;;;11.07;6.00;;;-0.70;99.90;;;-1.92;100.00;98724.59;5054428;28;20118;-69
2021/11/23 06:25:57;;;;;;;13.43;7.30;;;-0.70;99.90;;;-1.95;100.00;98725.38;5050399;28;20148;-70
2021/11/23 06:28:24;;;;;;;13.20;6.85;;;-0.70;99.90;;;-1.93;100.00;98721.19;5053101;28;20053;-69
2021/11/23 06:30:52;;;;;;;15.18;7.45;;;-0.80;99.90;;;-1.85;100.00;98730.72;5048329;28;20087;-69
2021/11/23 06:33:19;;;;;;;9.07;4.97;;;-0.70;99.90;;;-1.96;100.00;98736.41;5055020;28;20124;-69
2021/11/23 06:35:47;;;;;;;12.95;6.28;;;-0.70;99.90;;;-1.85;100.00;98738.34;5053823;28;20080;-69
2021/11/23 06:38:14;;;;;;;11.65;6.00;;;-0.70;99.90;;;-1.85;100.00;98731.56;5059157;28;20077;-69
2021/11/23 06:40:46;;;;;;;9.00;5.00;;;-0.70;99.90;;;-1.85;100.00;98728.16;5048973;28;20140;-69
2021/11/23 06:43:13;;;;;;;10.38;5.28;;;-0.70;99.90;;;-1.81;100.00;98724.88;5049934;28;20180;-69
2021/11/23 06:45:40;;;;;;;10.90;5.60;;;-0.70;99.90;;;-1.85;100.00;98723.94;5055717;28;20071;-68
2021/11/23 06:48:08;;;;;;;11.30;5.25;;;-0.70;99.90;;;-1.95;100.00;98722.84;5052241;28;20046;-70
2021/11/23 06:50:36;;;;;;;9.27;4.70;;;-0.70;99.90;;;-1.94;100.00;98733.88;5051033;28;20215;-69
2021/11/23 06:53:06;;;;;;;12.23;5.95;;;-0.80;99.90;;;-2.00;100.00;98729.50;5059513;28;20141;-68
2021/11/23 06:55:34;;;;;;;9.73;4.93;;;-0.80;99.90;;;-1.84;100.00;98738.41;5054921;28;20227;-70
2021/11/23 06:58:01;;;;;;;11.05;4.63;;;-0.80;99.90;;;-1.75;100.00;98733.53;5041337;28;20084;-69
2021/11/23 07:00:29;;;;;;;9.70;5.13;;;-0.60;99.90;;;-1.81;100.00;98737.59;5051785;28;20135;-69
2021/11/23 07:02:57;;;;;;;8.93;4.57;;;-0.60;99.90;;;-1.73;100.00;98733.59;5061680;28;20525;-70
2021/11/23 07:05:24;;;;;;;10.55;5.05;;;-0.60;99.90;;;-1.75;100.00;98733.53;5050127;28;20156;-69
2021/11/23 07:07:51;;;;;;;9.70;4.55;;;-0.60;99.90;;;-1.76;100.00;98736.88;5057541;28;20049;-69
2021/11/23 07:10:19;;;;;;;9.43;4.18;;;-0.50;99.90;;;-1.69;100.00;98733.69;5054824;28;20073;-69
2021/11/23 07:13:04;;;;;;;8.60;4.25;;;-0.50;99.90;;;-1.63;100.00;98732.97;5046706;28;20045;-70
2021/11/23 07:15:31;;;;;;;7.28;3.78;;;-0.50;99.90;;;-1.72;100.00;98736.13;5048708;28;20051;-69
2021/11/23 07:17:59;;;;;;;6.93;3.60;;;-0.50;99.90;;;-1.67;100.00;98731.16;5059160;28;20382;-69
2021/11/23 07:20:26;;;;;;;10.15;4.15;;;-0.40;99.90;;;-1.58;100.00;98731.38;5044763;28;20040;-70
2021/11/23 07:22:53;;;;;;;9.43;3.70;;;-0.40;99.90;;;-1.62;100.00;98737.25;5058266;28;20108;-69
2021/11/23 07:25:20;;;;;;;11.25;3.97;;;-0.40;99.90;;;-1.61;100.00;98738.09;5050210;28;20135;-69
2021/11/23 07:27:47;;;;;;;12.60;3.95;;;-0.40;99.90;;;-1.53;100.00;98737.47;5055259;28;20048;-69
2021/11/23 07:30:14;;;;;;;8.82;3.90;;;-0.30;99.90;;;-1.50;100.00;98737.53;5037965;28;20120;-69
2021/11/23 07:32:41;;;;;;;7.72;3.50;;;-0.30;99.90;;;-1.53;100.00;98744.22;5039064;28;20472;-69
2021/11/23 07:35:09;;;;;;;8.40;3.50;;;-0.30;99.90;;;-1.52;100.00;98739.19;5053323;28;20476;-69
2021/11/23 07:37:40;;;;;;;8.98;3.55;;;-0.30;99.90;;;-1.54;100.00;98753.56;5049025;28;20079;-70
2021/11/23 07:40:10;;;;;;;8.90;3.50;;;-0.30;99.90;;;-1.52;100.00;98751.91;5048144;28;20071;-70
2021/11/23 07:42:39;;;;;;;7.78;3.53;;;-0.20;99.90;;;-1.48;100.00;98747.78;5040481;28;20049;-69
2021/11/23 07:45:24;;;;;;;5.50;3.00;;;-0.20;99.90;;;-1.53;100.00;98750.19;5047185;28;20052;-70
2021/11/23 07:47:52;;;;;;;7.25;3.40;;;-0.20;99.90;;;-1.42;100.00;98741.94;5057912;28;20121;-68
2021/11/23 07:50:19;;;;;;;8.23;3.00;;;-0.20;99.90;;;-1.52;100.00;98756.16;5043313;28;20138;-70
2021/11/23 07:52:46;;;;;;;11.18;4.03;;;-0.20;99.90;;;-1.53;100.00;98759.50;5047427;28;20499;-69
2021/11/23 07:55:13;;;;;;;7.55;3.55;;;-0.20;99.90;;;-1.51;100.00;98753.63;5048816;28;20067;-69
2021/11/23 07:57:40;;;;;;;7.55;2.85;;;-0.20;99.90;;;-1.53;100.00;98767.13;5042969;28;20140;-68
2021/11/23 08:00:09;;;;;;;8.05;3.20;;;-0.20;99.90;;;-1.58;100.00;98767.03;5049715;28;20182;-70
2021/11/23 08:02:36;;;;;;;7.65;4.22;;;-0.20;99.90;;;-1.44;100.00;98777.56;5053132;28;20386;-68
2021/11/23 08:05:03;;;;;;;9.02;3.75;;;-0.20;99.90;;;-1.38;100.00;98779.41;5045968;28;20053;-69
2021/11/23 08:07:30;;;;;;;6.20;3.42;;;-0.10;99.90;;;-1.35;100.00;98777.78;5040074;28;20107;-69
2021/11/23 08:09:57;;;;;;;8.85;4.15;;;-0.20;99.90;;;-1.38;100.00;98782.81;5047381;28;20107;-70
2021/11/23 08:12:25;;;;;;;10.50;5.55;;;-0.10;99.90;;;-1.47;100.00;98785.97;5048898;28;20132;-69
2021/11/23 08:14:52;;;;;;;13.95;7.35;;;-0.20;99.90;;;-1.47;100.00;98792.75;5049809;28;20162;-69
2021/11/23 08:17:19;;;;;;;13.30;6.32;;;-0.10;99.90;;;-1.42;100.00;98783.53;5049584;28;20069;-70
2021/11/23 08:19:46;;;;;;;9.90;6.10;;;-0.20;99.90;;;-1.37;100.00;98799.81;5048633;28;20045;-69
2021/11/23 08:22:13;;;;;;;13.73;6.72;;;-0.20;99.90;;;-1.33;100.00;98798.19;5046223;28;20087;-70
2021/11/23 08:24:41;;;;;;;9.95;5.15;;;-0.10;99.90;;;-1.27;100.00;98803.44;5043137;28;20106;-69
2021/11/23 08:27:09;;;;;;;9.65;5.53;;;0.00;99.90;;;-1.31;100.00;98791.47;5044949;28;20497;-70
2021/11/23 08:29:36;;;;;;;10.65;5.43;;;0.00;99.90;;;-1.24;100.00;98792.47;5039406;28;20077;-70
2021/11/23 08:32:04;;;;;;;10.82;5.30;;;0.00;99.90;;;-1.29;100.00;98793.22;5028999;28;20458;-69
2021/11/23 08:34:33;;;;;;;9.27;4.35;;;0.00;99.90;;;-1.27;100.00;98785.63;5054504;28;20501;-69
2021/11/23 08:37:01;;;;;;;8.25;3.97;;;0.10;99.90;;;-1.25;100.00;98783.97;5044526;28;20138;-69
2021/11/23 08:39:28;;;;;;;11.65;4.70;;;0.10;99.90;;;-1.15;100.00;98782.50;5047510;28;20127;-69
2021/11/23 08:41:55;;;;;;;8.45;3.83;;;0.10;99.90;;;-1.08;100.00;98784.34;5058133;28;20163;-69
2021/11/23 08:44:22;;;;;;;9.68;4.07;;;0.20;99.90;;;-1.08;100.00;98785.19;5053289;28;20529;-69
2021/11/23 08:46:49;;;;;;;11.45;3.53;;;0.20;99.90;;;-0.98;100.00;98782.88;5042545;28;20147;-69
2021/11/23 08:49:16;;;;;;;8.30;3.97;;;0.30;99.90;;;-0.95;100.00;98791.44;5051572;28;20084;-70
2021/11/23 08:51:43;;;;;;;14.45;3.53;;;0.30;99.90;;;-0.78;100.00;98789.25;5049233;28;20472;-69
2021/11/23 08:54:10;;;;;;;7.63;3.60;;;0.40;99.90;;;-0.69;100.00;98776.72;5046861;28;20075;-69
2021/11/23 08:56:45;;;;;;;7.68;2.95;;;0.50;99.90;;;-0.58;100.00;98778.66;5052729;28;20045;-68
2021/11/23 08:59:14;;;;;;;6.70;2.75;;;0.60;99.90;;;-0.50;100.00;98782.19;5042070;28;20136;-69
2021/11/23 09:01:42;;;;;;;7.10;2.70;;;0.70;99.90;;;-0.43;100.00;98784.06;5041688;28;20159;-69
2021/11/23 09:04:10;;;;;;;5.80;2.55;;;0.80;99.90;;;-0.36;100.00;98785.91;5045141;28;20049;-69
2021/11/23 09:06:39;;;;;;;8.50;2.50;;;0.90;99.90;;;-0.18;100.00;98787.97;5042068;28;20159;-70
2021/11/23 09:09:09;;;;;;;5.82;2.63;;;1.00;99.90;;;-0.12;100.00;98779.56;5050018;28;20433;-70
2021/11/23 09:11:37;;;;;;;5.72;2.38;;;1.00;99.90;;;-0.06;100.00;98774.59;5044545;28;20090;-69
2021/11/23 09:14:07;;;;;;;6.80;2.38;;;1.10;99.90;;;-0.01;100.00;98785.75;5044903;28;20049;-70
2021/11/23 09:16:36;;;;;;;4.70;2.30;;;1.30;99.90;;;0.02;100.00;98782.38;5045666;28;20131;-70
2021/11/23 09:19:05;;;;;;;6.55;2.38;;;1.30;99.90;;;0.17;100.00;98782.66;5040605;28;20061;-69
2021/11/23 09:21:32;;;;;;;9.45;1.90;;;1.40;99.90;;;0.15;100.00;98777.53;5040488;28;20466;-70
2021/11/23 09:24:01;;;;;;;6.28;2.60;;;1.40;99.90;;;0.31;100.00;98782.91;5039355;28;20080;-69
2021/11/23 09:26:28;;;;;;;7.28;1.70;;;1.50;99.90;;;0.36;100.00;98796.63;5035207;28;20112;-69
2021/11/23 09:28:56;;;;;;;6.53;2.03;;;1.60;99.90;;;0.34;100.00;98790.63;5043447;28;20118;-69
2021/11/23 09:31:24;;;;;;;4.25;1.63;;;1.60;99.90;;;0.39;100.00;98787.31;5035025;28;20471;-69
2021/11/23 09:33:52;;;;;;;5.35;2.20;;;1.70;99.90;;;0.44;100.00;98787.41;5041623;28;20049;-70
2021/11/23 09:36:19;;;;;;;4.00;1.77;;;1.70;99.90;;;0.49;100.00;98792.59;5038541;28;20135;-70
2021/11/23 09:38:47;;;;;;;4.55;1.95;;;1.70;99.90;;;0.53;100.00;98794.38;5047522;28;20071;-69
2021/11/23 09:41:14;;;;;;;6.00;1.30;;;1.80;99.90;;;0.57;100.00;98796.13;5050048;28;20076;-70
2021/11/23 09:43:42;;;;;;;4.90;1.40;;;1.80;99.90;;;0.62;100.00;98797.94;5044751;28;20101;-70
2021/11/23 09:46:10;;;;;;;6.68;2.08;;;1.90;99.90;;;0.67;100.00;98800.56;5050998;28;20129;-70
2021/11/23 09:48:44;;;;;;;4.93;1.67;;;1.90;99.90;;;0.73;100.00;98793.00;5050916;28;20098;-70
2021/11/23 09:51:18;;;;;;;4.93;1.92;;;2.00;99.90;;;0.75;100.00;98793.00;5042690;28;20045;-70
2021/11/23 09:53:45;;;;;;;7.20;1.55;;;2.00;99.90;;;0.82;100.00;98788.03;5022721;28;20096;-70
2021/11/23 09:56:13;;;;;;;5.25;1.85;;;2.10;99.90;;;0.95;100.00;98786.50;5043826;28;20046;-70
2021/11/23 09:58:40;;;;;;;6.78;1.83;;;2.10;99.90;;;1.00;100.00;98787.47;5050560;28;20131;-70
2021/11/23 10:01:11;;;;;;;3.95;1.58;;;2.20;99.90;;;1.01;100.00;98781.50;5041137;28;20053;-70
2021/11/23 10:03:40;;;;;;;5.32;2.00;;;2.30;99.90;;;1.10;100.00;98777.38;5039310;28;20044;-70
2021/11/23 10:06:12;;;;;;;5.35;1.98;;;2.30;99.90;;;1.22;100.00;98780.94;5009123;28;20144;-67
2021/11/23 10:08:42;;;;;;;6.00;2.08;;;2.50;99.90;;;1.20;100.00;98776.66;5044336;28;20049;-69
2021/11/23 10:11:12;;;;;;;6.43;1.90;;;2.50;99.90;;;1.21;100.00;98778.38;5032106;28;20159;-70
2021/11/23 10:13:49;;;;;;;4.88;1.30;;;2.50;99.90;;;1.35;100.00;98779.44;5034235;28;20049;-69
2021/11/23 10:16:19;;;;;;;7.55;2.40;;;2.50;99.90;;;1.35;100.00;98771.75;5062787;28;20127;-70
2021/11/23 10:18:52;;;;;;;7.15;2.33;;;2.60;99.90;;;1.44;100.00;98771.88;5042528;28;20082;-70